createdAt,value
2022-09-12T00:00:57.875Z,0.07
2022-09-12T00:04:58.176Z,0.07
2022-09-12T00:08:58.146Z,0.07
2022-09-12T00:12:58.367Z,0.07
2022-09-12T00:16:58.561Z,0.07
2022-09-12T00:20:58.427Z,0.07
2022-09-12T00:24:57.993Z,0.07
2022-09-12T00:28:58.289Z,0.07
2022-09-12T00:32:57.851Z,0.07
2022-09-12T00:36:58.379Z,0.07
2022-09-12T00:40:57.626Z,0.07
2022-09-12T00:44:58.007Z,0.07
2022-09-12T00:48:57.963Z,0.07
2022-09-12T00:52:58.391Z,0.07
2022-09-12T00:56:58.372Z,0.07
2022-09-12T01:01:00.681Z,0.07
2022-09-12T01:04:58.207Z,0.07
2022-09-12T01:08:58.603Z,0.07
2022-09-12T01:12:57.947Z,0.07
2022-09-12T01:16:58.528Z,0.07
2022-09-12T01:20:58.270Z,0.07
2022-09-12T01:24:57.630Z,0.07
2022-09-12T01:28:58.486Z,0.07
2022-09-12T01:32:58.505Z,0.07
2022-09-12T01:36:58.180Z,0.07
2022-09-12T01:40:58.037Z,0.07
2022-09-12T01:44:57.929Z,0.07
2022-09-12T01:48:58.341Z,0.07
2022-09-12T01:52:57.777Z,0.07
2022-09-12T01:56:57.797Z,0.07
2022-09-12T02:01:01.103Z,0.07
2022-09-12T02:04:58.361Z,0.07
2022-09-12T02:08:58.544Z,0.07
2022-09-12T02:12:57.615Z,0.07
2022-09-12T02:16:58.277Z,0.07
2022-09-12T02:21:22.822Z,0.07
2022-09-12T02:24:58.465Z,0.07
2022-09-12T02:28:58.327Z,0.07
2022-09-12T02:32:58.028Z,0.07
2022-09-12T02:36:58.010Z,0.07
2022-09-12T02:40:58.347Z,0.07
2022-09-12T02:44:58.305Z,0.07
2022-09-12T02:48:58.632Z,0.07
2022-09-12T02:52:58.454Z,0.07
2022-09-12T02:56:58.447Z,0.07
2022-09-12T03:00:58.102Z,0.07
2022-09-12T03:04:57.745Z,0.07
2022-09-12T03:08:58.560Z,0.07
2022-09-12T03:12:58.173Z,0.07
2022-09-12T03:16:57.866Z,0.07
2022-09-12T03:20:58.145Z,0.07
2022-09-12T03:24:57.742Z,0.07
2022-09-12T03:28:58.636Z,0.07
2022-09-12T03:32:57.431Z,0.07
2022-09-12T03:36:58.077Z,0.07
2022-09-12T03:41:02.681Z,0.07
2022-09-12T03:44:58.066Z,0.07
2022-09-12T03:48:57.850Z,0.07
2022-09-12T03:52:58.066Z,0.07
2022-09-12T03:56:57.833Z,0.07
2022-09-12T04:01:05.024Z,0.07
2022-09-12T04:04:57.754Z,0.07
2022-09-12T04:08:57.777Z,0.07
2022-09-12T04:12:58.301Z,0.07
2022-09-12T04:16:58.276Z,0.07
2022-09-12T04:20:57.989Z,0.07
2022-09-12T04:24:58.127Z,0.07
2022-09-12T04:28:58.603Z,0.07
2022-09-12T04:32:57.602Z,0.07
2022-09-12T04:36:57.671Z,0.07
2022-09-12T04:40:58.361Z,0.07
2022-09-12T04:44:57.969Z,0.07
2022-09-12T04:48:58.783Z,0.07
2022-09-12T04:52:58.223Z,0.07
2022-09-12T04:56:57.782Z,0.07
2022-09-12T05:01:03.934Z,0.07
2022-09-12T05:04:58.328Z,0.07
2022-09-12T05:08:58.236Z,0.07
2022-09-12T05:13:01.692Z,0.07
2022-09-12T05:17:01.125Z,0.07
2022-09-12T05:20:58.415Z,0.07
2022-09-12T05:25:02.062Z,0.07
2022-09-12T05:28:58.363Z,0.07
2022-09-12T05:32:57.915Z,0.07
2022-09-12T05:36:58.351Z,0.07
2022-09-12T05:40:57.902Z,0.07
2022-09-12T05:44:57.687Z,0.07
2022-09-12T05:48:58.390Z,0.07
2022-09-12T05:52:58.393Z,0.07
2022-09-12T05:56:57.806Z,0.07
2022-09-12T06:01:06.689Z,0.07
2022-09-12T06:04:58.141Z,0.07
2022-09-12T06:08:58.419Z,0.07
2022-09-12T06:12:57.869Z,0.07
2022-09-12T06:16:58.699Z,0.07
2022-09-12T06:20:58.078Z,0.07
2022-09-12T06:24:58.158Z,0.07
2022-09-12T06:28:57.987Z,0.07
2022-09-12T06:32:57.823Z,0.07
2022-09-12T06:36:57.843Z,0.07
2022-09-12T06:40:59.091Z,0.08
2022-09-12T06:44:58.147Z,0.08
2022-09-12T06:49:04.156Z,0.07
2022-09-12T06:52:58.049Z,0.08
2022-09-12T06:56:57.960Z,0.08
2022-09-12T07:01:01.648Z,0.07
2022-09-12T07:04:58.282Z,0.08
2022-09-12T07:08:57.632Z,0.08
2022-09-12T07:12:58.094Z,0.08
2022-09-12T07:17:04.722Z,0.08
2022-09-12T07:20:57.932Z,0.08
2022-09-12T07:24:58.363Z,0.08
2022-09-12T07:29:13.196Z,0.08
2022-09-12T07:32:57.555Z,0.08
2022-09-12T07:36:57.624Z,0.08
2022-09-12T07:40:58.274Z,0.08
2022-09-12T07:44:57.461Z,0.08
2022-09-12T07:48:58.387Z,0.08
2022-09-12T07:52:58.239Z,0.08
2022-09-12T07:57:04.446Z,0.08
2022-09-12T08:01:00.711Z,0.07
2022-09-12T08:04:58.285Z,0.07
2022-09-12T08:08:58.499Z,0.07
2022-09-12T08:12:57.525Z,0.08
2022-09-12T08:16:58.137Z,0.07
2022-09-12T08:21:02.173Z,0.07
2022-09-12T08:24:58.118Z,0.07
2022-09-12T08:28:57.483Z,0.07
2022-09-12T08:32:58.199Z,0.07
2022-09-12T08:36:58.207Z,0.07
2022-09-12T08:40:58.693Z,0.07
2022-09-12T08:44:57.942Z,0.07
2022-09-12T08:48:58.271Z,0.06
2022-09-12T08:52:58.357Z,0.04
2022-09-12T08:57:03.467Z,0.04
2022-09-12T09:01:01.155Z,0.04
2022-09-12T09:05:02.425Z,0.03
2022-09-12T09:08:58.079Z,0.03
2022-09-12T09:12:57.778Z,0.03
2022-09-12T09:16:57.771Z,0.03
2022-09-12T09:20:58.495Z,0.03
2022-09-12T09:24:58.493Z,0.03
2022-09-12T09:28:58.164Z,0.03
2022-09-12T09:32:57.484Z,0.03
2022-09-12T09:36:58.449Z,0.04
2022-09-12T09:40:58.353Z,0.04
2022-09-12T09:44:57.777Z,0.04
2022-09-12T09:48:58.640Z,0.03
2022-09-12T09:52:58.114Z,0.04
2022-09-12T09:56:57.845Z,0.04
2022-09-12T10:01:05.042Z,0.03
2022-09-12T10:05:03.827Z,0.04
2022-09-12T10:08:58.118Z,0.04
2022-09-12T10:12:58.644Z,0.04
2022-09-12T10:16:57.759Z,0.04
2022-09-12T10:21:18.032Z,0.04
2022-09-12T10:24:58.469Z,0.04
2022-09-12T10:28:58.399Z,0.05
2022-09-12T10:33:04.511Z,0.05
2022-09-12T10:36:58.068Z,0.04
2022-09-12T10:40:58.124Z,0.03
2022-09-12T10:44:57.643Z,0.03
2022-09-12T10:49:03.906Z,0.04
2022-09-12T10:52:58.025Z,0.04
2022-09-12T10:56:57.952Z,0.04
2022-09-12T11:01:01.311Z,0.03
2022-09-12T11:04:58.509Z,0.04
2022-09-12T11:08:58.399Z,0.04
2022-09-12T11:12:57.904Z,0.03
2022-09-12T11:16:58.186Z,0.03
2022-09-12T11:20:58.227Z,0.03
2022-09-12T11:24:57.839Z,0.03
2022-09-12T11:28:58.688Z,0.03
2022-09-12T11:32:57.551Z,0.03
2022-09-12T11:36:58.228Z,0.04
2022-09-12T11:40:58.362Z,0.03
2022-09-12T11:45:02.626Z,0.03
2022-09-12T11:48:58.397Z,0.03
2022-09-12T11:52:58.248Z,0.03
2022-09-12T11:56:58.150Z,0.03
2022-09-12T12:01:02.991Z,0.03
2022-09-12T12:04:57.935Z,0.03
2022-09-12T12:08:58.529Z,0.03
2022-09-12T12:12:57.746Z,0.04
2022-09-12T12:16:58.639Z,0.03
2022-09-12T12:21:03.874Z,0.03
2022-09-12T12:24:58.455Z,0.04
2022-09-12T12:28:58.630Z,0.04
2022-09-12T12:32:57.982Z,0.04
2022-09-12T12:36:58.037Z,0.04
2022-09-12T12:40:58.215Z,0.04
2022-09-12T12:44:58.500Z,0.04
2022-09-12T12:49:03.843Z,0.04
2022-09-12T12:52:58.036Z,0.05
2022-09-12T12:56:58.043Z,0.05
2022-09-12T13:01:02.598Z,0.05
2022-09-12T13:04:58.176Z,0.05
2022-09-12T13:08:58.324Z,0.05
2022-09-12T13:12:58.153Z,0.05
2022-09-12T13:16:58.582Z,0.05
2022-09-12T13:21:23.900Z,0.05
2022-09-12T13:24:57.930Z,0.05
2022-09-12T13:28:57.872Z,0.04
2022-09-12T13:32:58.444Z,0.04
2022-09-12T13:36:58.143Z,0.04
2022-09-12T13:40:58.502Z,0.05
2022-09-12T13:44:58.007Z,0.05
2022-09-12T13:48:58.491Z,0.05
2022-09-12T13:52:57.759Z,0.05
2022-09-12T13:56:57.825Z,0.05
2022-09-12T14:01:00.838Z,0.05
2022-09-12T14:04:58.108Z,0.05
2022-09-12T14:08:58.452Z,0.05
2022-09-12T14:12:58.201Z,0.05
2022-09-12T14:16:58.326Z,0.05
2022-09-12T14:20:57.864Z,0.05
2022-09-12T14:24:57.654Z,0.05
2022-09-12T14:28:58.165Z,0.05
2022-09-12T14:32:58.224Z,0.05
2022-09-12T14:36:58.014Z,0.05
2022-09-12T14:40:58.062Z,0.06
2022-09-12T14:44:57.957Z,0.06
2022-09-12T14:48:58.623Z,0.06
2022-09-12T14:52:57.928Z,0.06
2022-09-12T14:56:58.165Z,0.06
2022-09-12T15:00:57.936Z,0.07
2022-09-12T15:04:58.431Z,0.06
2022-09-12T15:08:57.864Z,0.06
2022-09-12T15:12:57.793Z,0.06
2022-09-12T15:16:57.840Z,0.08
2022-09-12T15:20:57.745Z,0.08
2022-09-12T15:24:58.211Z,0.09
2022-09-12T15:28:58.318Z,0.1
2022-09-12T15:32:57.749Z,0.1
2022-09-12T15:36:57.976Z,0.09
2022-09-12T15:40:58.813Z,0.1
2022-09-12T15:45:02.204Z,0.1
2022-09-12T15:48:58.550Z,0.1
2022-09-12T15:52:57.882Z,0.1
2022-09-12T15:56:58.125Z,0.1
2022-09-12T16:01:02.660Z,0.09
2022-09-12T16:04:57.914Z,0.09
2022-09-12T16:08:58.763Z,0.09
2022-09-12T16:12:58.009Z,0.09
2022-09-12T16:16:58.125Z,0.09
2022-09-12T16:20:58.006Z,0.09
2022-09-12T16:24:57.610Z,0.1
2022-09-12T16:28:58.610Z,0.09
2022-09-12T16:32:58.169Z,0.09
2022-09-12T16:36:58.214Z,0.09
2022-09-12T16:40:58.391Z,0.09
2022-09-12T16:44:57.925Z,0.09
2022-09-12T16:49:03.508Z,0.09
2022-09-12T16:52:58.330Z,0.09
2022-09-12T16:56:58.038Z,0.09
2022-09-12T17:01:02.389Z,0.09
2022-09-12T17:04:58.047Z,0.09
2022-09-12T17:08:58.136Z,0.09
2022-09-12T17:12:57.959Z,0.09
2022-09-12T17:17:03.317Z,0.08
2022-09-12T17:20:58.030Z,0.08
2022-09-12T17:24:58.002Z,0.08
2022-09-12T17:28:58.303Z,0.08
2022-09-12T17:33:02.588Z,0.08
2022-09-12T17:36:58.053Z,0.08
2022-09-12T17:41:29.755Z,0.08
2022-09-12T17:44:58.242Z,0.08
2022-09-12T17:48:57.538Z,0.08
2022-09-12T17:52:58.231Z,0.08
2022-09-12T17:56:57.693Z,0.08
2022-09-12T18:01:01.273Z,0.08
2022-09-12T18:04:58.129Z,0.09
2022-09-12T18:08:58.228Z,0.09
2022-09-12T18:12:58.095Z,0.08
2022-09-12T18:16:58.382Z,0.09
2022-09-12T18:20:57.671Z,0.09
2022-09-12T18:24:58.052Z,0.09
2022-09-12T18:29:03.644Z,0.1
2022-09-12T18:32:57.444Z,0.1
2022-09-12T18:36:58.073Z,0.1
2022-09-12T18:40:58.370Z,0.1
2022-09-12T18:44:57.560Z,0.1
2022-09-12T18:48:58.458Z,0.1
2022-09-12T18:52:59.721Z,0.1
2022-09-12T18:56:57.471Z,0.1
2022-09-12T19:01:08.771Z,0.1
2022-09-12T19:04:57.758Z,0.1
2022-09-12T19:08:57.907Z,0.1
2022-09-12T19:12:57.850Z,0.1
2022-09-12T19:16:57.983Z,0.1
2022-09-12T19:20:58.169Z,0.1
2022-09-12T19:24:58.226Z,0.1
2022-09-12T19:28:58.106Z,0.1
2022-09-12T19:32:58.153Z,0.1
2022-09-12T19:37:26.054Z,0.1
2022-09-12T19:40:58.595Z,0.1
2022-09-12T19:44:58.355Z,0.1
2022-09-12T19:48:58.110Z,0.1
2022-09-12T19:53:02.568Z,0.1
2022-09-12T19:56:57.767Z,0.1
2022-09-12T20:00:59.486Z,0.1
2022-09-12T20:04:58.274Z,0.1
2022-09-12T20:08:58.201Z,0.1
2022-09-12T20:12:58.393Z,0.1
2022-09-12T20:16:57.712Z,0.1
2022-09-12T20:20:58.088Z,0.1
2022-09-12T20:24:58.211Z,0.1
2022-09-12T20:28:58.092Z,0.1
2022-09-12T20:32:57.881Z,0.1
2022-09-12T20:36:58.104Z,0.1
2022-09-12T20:40:57.940Z,0.1
2022-09-12T20:44:57.593Z,0.1
2022-09-12T20:48:57.617Z,0.1
2022-09-12T20:52:57.986Z,0.1
2022-09-12T20:56:58.196Z,0.1
2022-09-12T21:00:57.748Z,0.1
2022-09-12T21:05:00.373Z,0.09
2022-09-12T21:08:57.763Z,0.09
2022-09-12T21:12:57.924Z,0.09
2022-09-12T21:16:58.731Z,0.09
2022-09-12T21:20:58.374Z,0.09
2022-09-12T21:24:58.073Z,0.09
2022-09-12T21:28:58.403Z,0.09
2022-09-12T21:32:59.501Z,0.09
2022-09-12T21:36:58.191Z,0.09
2022-09-12T21:40:58.007Z,0.09
2022-09-12T21:44:57.628Z,0.09
2022-09-12T21:48:57.666Z,0.09
2022-09-12T21:52:57.579Z,0.09
2022-09-12T21:56:58.274Z,0.09
2022-09-12T22:01:07.776Z,0.09
2022-09-12T22:04:57.987Z,0.09
2022-09-12T22:08:57.565Z,0.09
2022-09-12T22:12:57.945Z,0.09
2022-09-12T22:16:58.868Z,0.09
2022-09-12T22:20:57.795Z,0.09
2022-09-12T22:24:57.638Z,0.08
2022-09-12T22:28:58.858Z,0.08
2022-09-12T22:32:58.345Z,0.08
2022-09-12T22:37:04.347Z,0.08
2022-09-12T22:40:58.465Z,0.08
2022-09-12T22:44:58.356Z,0.08
2022-09-12T22:49:03.616Z,0.08
2022-09-12T22:52:58.068Z,0.08
2022-09-12T22:56:58.355Z,0.08
2022-09-12T23:01:00.680Z,0.08
2022-09-12T23:04:57.918Z,0.08
2022-09-12T23:08:58.200Z,0.08
2022-09-12T23:12:58.125Z,0.08
2022-09-12T23:16:58.922Z,0.08
2022-09-12T23:20:58.367Z,0.08
2022-09-12T23:24:57.873Z,0.08
2022-09-12T23:28:57.570Z,0.08
2022-09-12T23:32:57.713Z,0.08
2022-09-12T23:36:58.009Z,0.08
2022-09-12T23:40:58.929Z,0.08
2022-09-12T23:44:57.486Z,0.08
2022-09-12T23:48:58.299Z,0.08
2022-09-12T23:52:58.192Z,0.08
2022-09-12T23:56:57.876Z,0.08
